Time;durP1;ratioP1;P1;durP2;ratioP2;P2;SDS_P1;SDS_P2;PMS_P1;PMS_P2;Temp;Humidity;BMP_temperature;BMP_pressure;BME280_temperature;BME280_humidity;BME280_pressure;Samples;Min_cycle;Max_cycle;Signal;HPM_P1;HPM_P2
2022/11/27 00:01:58;;;;;;;15.48;4.53;;;7.40;99.90;;;;;;5096104;28;20043;-85
2022/11/27 00:04:24;;;;;;;13.02;3.75;;;7.40;99.90;;;;;;5113097;28;20032;-85
2022/11/27 00:06:49;;;;;;;12.30;3.78;;;7.40;99.90;;;;;;5095522;28;20062;-85
2022/11/27 00:09:15;;;;;;;13.52;4.18;;;7.40;99.90;;;;;;5112539;28;20050;-85
2022/11/27 00:11:42;;;;;;;16.50;4.28;;;7.40;99.90;;;;;;5111349;28;20035;-85
2022/11/27 00:14:13;;;;;;;11.88;3.95;;;7.40;99.90;;;;;;5112058;28;20489;-85
2022/11/27 00:16:39;;;;;;;12.93;4.43;;;7.40;99.90;;;;;;5112632;28;20039;-85
2022/11/27 00:19:04;;;;;;;15.35;4.70;;;7.40;99.90;;;;;;5110805;28;20402;-85
2022/11/27 00:21:32;;;;;;;14.95;4.43;;;7.40;99.90;;;;;;5095947;28;20044;-85
2022/11/27 00:23:59;;;;;;;14.20;3.90;;;7.40;99.90;;;;;;5111295;28;20036;-85
2022/11/27 00:26:26;;;;;;;12.90;4.13;;;7.30;99.90;;;;;;5112602;28;20040;-85
2022/11/27 00:28:52;;;;;;;12.43;3.60;;;7.40;99.90;;;;;;5112580;28;20067;-84
2022/11/27 00:31:20;;;;;;;15.13;4.65;;;7.40;99.90;;;;;;5095411;28;20083;-85
2022/11/27 00:33:46;;;;;;;14.85;4.65;;;7.40;99.90;;;;;;5111957;28;20119;-85
2022/11/27 00:36:13;;;;;;;14.90;4.28;;;7.30;99.90;;;;;;5111312;28;20043;-85
2022/11/27 00:38:39;;;;;;;17.05;4.35;;;7.40;99.90;;;;;;5095222;28;20054;-85
2022/11/27 00:41:16;;;;;;;13.15;4.15;;;7.40;99.90;;;;;;5111276;28;20039;-84
2022/11/27 00:43:42;;;;;;;12.18;4.13;;;7.40;99.90;;;;;;5111687;28;20140;-85
2022/11/27 00:46:08;;;;;;;12.25;3.88;;;7.30;99.90;;;;;;5095184;28;20039;-84
2022/11/27 00:48:34;;;;;;;17.30;4.53;;;7.30;99.90;;;;;;5094207;28;20423;-84
2022/11/27 00:51:01;;;;;;;14.57;4.25;;;7.30;99.90;;;;;;5111980;28;20035;-85
2022/11/27 00:53:27;;;;;;;10.95;4.55;;;7.30;99.90;;;;;;5109558;28;20043;-85
2022/11/27 00:55:53;;;;;;;11.60;3.90;;;7.20;99.90;;;;;;5111827;28;20042;-85
2022/11/27 00:58:19;;;;;;;13.98;4.45;;;7.20;99.90;;;;;;5094884;28;20662;-85
2022/11/27 01:00:44;;;;;;;13.77;4.18;;;7.20;99.90;;;;;;5092410;28;20130;-85
2022/11/27 01:03:10;;;;;;;15.35;5.07;;;7.20;99.90;;;;;;5094020;28;20454;-85
2022/11/27 01:05:36;;;;;;;14.30;4.20;;;7.10;99.90;;;;;;5110451;28;20386;-84
2022/11/27 01:08:03;;;;;;;17.25;4.55;;;7.10;99.90;;;;;;5093745;28;20039;-85
2022/11/27 01:10:28;;;;;;;13.10;4.45;;;7.10;99.90;;;;;;5095020;28;20036;-85
2022/11/27 01:12:54;;;;;;;12.52;3.72;;;7.00;99.90;;;;;;5094119;28;20036;-85
2022/11/27 01:15:19;;;;;;;12.48;4.22;;;7.00;99.90;;;;;;5110660;28;20048;-85
2022/11/27 01:17:45;;;;;;;13.50;4.25;;;7.00;99.90;;;;;;5112016;28;20038;-85
2022/11/27 01:20:11;;;;;;;11.35;4.13;;;7.00;99.90;;;;;;5093564;28;20569;-85
2022/11/27 01:22:36;;;;;;;13.32;4.13;;;7.00;99.90;;;;;;5111103;28;20057;-85
2022/11/27 01:25:02;;;;;;;10.98;3.83;;;6.90;99.90;;;;;;5093396;28;20039;-85
2022/11/27 01:27:27;;;;;;;14.88;4.35;;;6.90;99.90;;;;;;5094432;28;20408;-85
2022/11/27 01:29:53;;;;;;;11.70;4.00;;;6.90;99.90;;;;;;5111271;28;20416;-85
2022/11/27 01:32:19;;;;;;;13.13;4.63;;;6.90;99.90;;;;;;5109930;28;20035;-85
2022/11/27 01:34:44;;;;;;;11.88;4.70;;;6.80;99.90;;;;;;5110877;28;20089;-85
2022/11/27 01:37:10;;;;;;;11.95;4.28;;;6.90;99.90;;;;;;5110102;28;20043;-85
2022/11/27 01:39:35;;;;;;;16.08;4.75;;;6.80;99.90;;;;;;5093189;28;20126;-85
2022/11/27 01:42:01;;;;;;;12.43;3.47;;;6.80;99.90;;;;;;5110345;28;20148;-85
2022/11/27 01:44:26;;;;;;;11.40;4.60;;;6.80;99.90;;;;;;5092996;28;20035;-85
2022/11/27 01:46:59;;;;;;;13.43;4.78;;;6.80;99.90;;;;;;5109677;28;20047;-85
2022/11/27 01:49:36;;;;;;;;;;;6.70;99.90;;;;;;5094873;28;20035;-85
2022/11/27 01:52:06;;;;;;;12.85;4.03;;;6.70;99.90;;;;;;5109996;28;19919;-85
2022/11/27 01:54:40;;;;;;;14.65;4.95;;;6.70;99.90;;;;;;5094048;28;20051;-85
2022/11/27 01:57:14;;;;;;;12.30;4.00;;;6.70;99.90;;;;;;5093271;28;20039;-85
2022/11/27 01:59:40;;;;;;;14.02;4.25;;;6.70;99.90;;;;;;5111269;28;20051;-85
2022/11/27 02:02:06;;;;;;;11.23;4.55;;;6.60;99.90;;;;;;5109775;28;20040;-85
2022/11/27 02:04:31;;;;;;;12.88;4.07;;;6.60;99.90;;;;;;5110574;28;20044;-84
2022/11/27 02:06:59;;;;;;;18.30;5.00;;;6.60;99.90;;;;;;5110207;28;20405;-85
2022/11/27 02:09:26;;;;;;;14.40;4.45;;;6.60;99.90;;;;;;5109855;28;20039;-85
2022/11/27 02:12:23;;;;;;;18.85;5.15;;;6.60;99.90;;;;;;5110348;28;20736;-85
2022/11/27 02:14:58;;;;;;;16.42;4.85;;;6.50;99.90;;;;;;5066430;28;20058;-85
2022/11/27 02:17:40;;;;;;;13.15;4.95;;;6.50;99.90;;;;;;5093341;28;20043;-85
2022/11/27 02:20:23;;;;;;;13.50;4.28;;;6.50;99.90;;;;;;5110055;28;20126;-85
2022/11/27 02:22:59;;;;;;;15.70;4.30;;;6.50;99.90;;;;;;5092310;28;20048;-85
2022/11/27 02:25:52;;;;;;;13.73;4.32;;;6.50;99.90;;;;;;5109405;28;20570;-85
2022/11/27 02:28:27;;;;;;;;;;;6.50;99.90;;;;;;5092010;28;20034;-85
2022/11/27 02:31:10;;;;;;;15.00;4.13;;;6.40;99.90;;;;;;5092172;28;19916;-85
2022/11/27 02:33:42;;;;;;;13.95;4.60;;;6.40;99.90;;;;;;5108218;28;20544;-85
2022/11/27 02:36:20;;;;;;;13.60;4.07;;;6.40;99.90;;;;;;5079844;28;20055;-84
2022/11/27 02:38:54;;;;;;;22.05;5.15;;;6.40;99.90;;;;;;5072259;28;20044;-85
2022/11/27 02:41:28;;;;;;;14.55;5.38;;;6.40;99.90;;;;;;5089171;28;20093;-85
2022/11/27 02:43:55;;;;;;;12.32;3.95;;;6.40;99.90;;;;;;5109919;28;20370;-84
2022/11/27 02:46:21;;;;;;;14.88;5.50;;;6.40;99.90;;;;;;5092743;28;20042;-84
2022/11/27 02:49:02;;;;;;;16.48;4.45;;;6.40;99.90;;;;;;5093346;28;20039;-84
2022/11/27 02:51:36;;;;;;;15.00;3.97;;;6.30;99.90;;;;;;5109150;28;20088;-84
2022/11/27 02:54:06;;;;;;;14.45;4.25;;;6.30;99.90;;;;;;5091910;28;20043;-84
2022/11/27 02:56:33;;;;;;;13.23;3.88;;;6.30;99.90;;;;;;5109736;28;20122;-84
2022/11/27 02:59:02;;;;;;;15.43;4.20;;;6.30;99.90;;;;;;5109380;28;20043;-85
2022/11/27 03:01:32;;;;;;;10.10;4.43;;;6.30;99.90;;;;;;5113683;28;20039;-84
2022/11/27 03:04:01;;;;;;;12.95;4.13;;;6.30;99.90;;;;;;5112919;28;20842;-84
2022/11/27 03:06:36;;;;;;;12.45;4.50;;;6.30;99.90;;;;;;5113539;28;20067;-85
2022/11/27 03:09:07;;;;;;;12.95;4.60;;;6.30;99.90;;;;;;5114161;28;20548;-85
2022/11/27 03:11:35;;;;;;;14.10;4.25;;;6.30;99.90;;;;;;5113950;28;20050;-85
2022/11/27 03:14:08;;;;;;;12.55;4.40;;;6.30;99.90;;;;;;5096446;28;20035;-85
2022/11/27 03:16:54;;;;;;;15.07;4.05;;;6.30;99.90;;;;;;5112294;28;20040;-85
2022/11/27 03:19:39;;;;;;;12.70;4.10;;;6.30;99.90;;;;;;5096389;28;20046;-85
2022/11/27 03:22:05;;;;;;;14.57;3.65;;;6.30;99.90;;;;;;5112796;28;20123;-85
2022/11/27 03:24:33;;;;;;;12.57;3.50;;;6.20;99.90;;;;;;5113794;28;20078;-85
2022/11/27 03:26:59;;;;;;;10.48;3.60;;;6.20;99.90;;;;;;5114303;28;20039;-85
2022/11/27 03:29:38;;;;;;;12.38;4.22;;;6.20;99.90;;;;;;5096555;28;20036;-85
2022/11/27 03:32:04;;;;;;;15.05;3.70;;;6.20;99.90;;;;;;5114078;28;20066;-85
2022/11/27 03:34:31;;;;;;;10.80;3.63;;;6.20;99.90;;;;;;5111636;28;20061;-85
2022/11/27 03:36:56;;;;;;;10.77;4.18;;;6.20;99.90;;;;;;5113370;28;20548;-85
2022/11/27 03:39:23;;;;;;;10.95;3.67;;;6.20;99.90;;;;;;5112917;28;20035;-85
2022/11/27 03:42:08;;;;;;;13.20;3.90;;;6.20;99.90;;;;;;5095765;28;20043;-85
2022/11/27 03:45:15;;;;;;;10.68;3.83;;;6.20;99.90;;;;;;5113353;28;20122;-85
2022/11/27 03:48:07;;;;;;;12.05;3.90;;;6.30;99.90;;;;;;5110574;28;20047;-85
2022/11/27 03:51:06;;;;;;;12.90;3.75;;;6.20;99.90;;;;;;5095815;28;20066;-85
2022/11/27 03:54:04;;;;;;;10.85;3.22;;;6.20;99.90;;;;;;5111152;28;20459;-85
2022/11/27 03:56:40;;;;;;;13.50;3.67;;;6.20;99.90;;;;;;5111429;28;20040;-84
2022/11/27 03:59:15;;;;;;;10.18;3.65;;;6.20;99.90;;;;;;5111804;28;20036;-84
2022/11/27 04:01:41;;;;;;;12.70;3.80;;;6.20;99.90;;;;;;5110580;28;20070;-85
2022/11/27 04:04:07;;;;;;;13.30;3.83;;;6.20;99.90;;;;;;5111499;28;20067;-85
2022/11/27 04:06:33;;;;;;;11.23;3.63;;;6.20;99.90;;;;;;5110904;28;20382;-85
2022/11/27 04:08:58;;;;;;;14.35;3.72;;;6.20;99.90;;;;;;5110920;28;20035;-85
2022/11/27 04:11:24;;;;;;;14.25;4.15;;;6.20;99.90;;;;;;5111101;28;20046;-84
2022/11/27 04:13:51;;;;;;;12.23;3.65;;;6.20;99.90;;;;;;5110518;28;20038;-85
2022/11/27 04:16:17;;;;;;;10.73;3.40;;;6.20;99.90;;;;;;5111534;28;20128;-85
2022/11/27 04:18:42;;;;;;;16.67;4.00;;;6.20;99.90;;;;;;5094391;28;20040;-85
2022/11/27 04:21:08;;;;;;;10.57;3.50;;;6.20;99.90;;;;;;5110662;28;20514;-85
2022/11/27 04:23:34;;;;;;;16.20;3.78;;;6.20;99.90;;;;;;5109981;28;20405;-85
2022/11/27 04:25:59;;;;;;;12.15;4.00;;;6.20;99.90;;;;;;5110483;28;20112;-84
2022/11/27 04:28:25;;;;;;;12.30;4.97;;;6.20;99.90;;;;;;5110850;28;20065;-85
2022/11/27 04:30:52;;;;;;;11.23;3.97;;;6.20;99.90;;;;;;5109751;28;20512;-87
2022/11/27 04:33:18;;;;;;;11.55;4.05;;;6.20;99.90;;;;;;5093342;28;20035;-87
2022/11/27 04:35:43;;;;;;;11.43;3.80;;;6.20;99.90;;;;;;5093781;28;20031;-87
2022/11/27 04:38:09;;;;;;;16.17;4.97;;;6.20;99.90;;;;;;5110997;28;20408;-87
2022/11/27 04:40:35;;;;;;;10.70;4.15;;;6.20;99.90;;;;;;5111078;28;20499;-87
2022/11/27 04:43:00;;;;;;;10.65;4.50;;;6.20;99.90;;;;;;5109572;28;20035;-87
2022/11/27 04:45:26;;;;;;;13.55;4.30;;;6.20;99.90;;;;;;5093283;28;20036;-87
2022/11/27 04:47:51;;;;;;;11.13;4.22;;;6.20;99.90;;;;;;5110248;28;20048;-87
2022/11/27 04:50:17;;;;;;;14.55;4.28;;;6.20;99.90;;;;;;5111084;28;20046;-87
2022/11/27 04:52:42;;;;;;;11.45;3.85;;;6.20;99.90;;;;;;5057556;28;1047020;-88
2022/11/27 04:55:08;;;;;;;11.13;3.60;;;6.20;99.90;;;;;;5111690;28;20051;-87
2022/11/27 04:57:34;;;;;;;12.43;3.38;;;6.10;99.90;;;;;;5095098;28;20116;-87
2022/11/27 04:59:59;;;;;;;12.70;3.60;;;6.20;99.90;;;;;;5111438;28;20047;-87
2022/11/27 05:02:25;;;;;;;9.77;3.58;;;6.20;99.90;;;;;;5093573;28;20415;-87
2022/11/27 05:04:51;;;;;;;11.05;3.28;;;6.20;99.90;;;;;;5111586;28;20061;-87
2022/11/27 05:07:16;;;;;;;11.18;3.05;;;6.20;99.90;;;;;;5110811;28;20511;-87
2022/11/27 05:09:41;;;;;;;11.48;3.08;;;6.20;99.90;;;;;;5111017;28;20039;-87
2022/11/27 05:12:07;;;;;;;11.32;3.35;;;6.20;99.90;;;;;;5111011;28;20043;-88
2022/11/27 05:14:33;;;;;;;11.75;3.88;;;6.20;99.90;;;;;;5094125;28;20047;-87
2022/11/27 05:16:59;;;;;;;11.15;3.20;;;6.20;99.90;;;;;;5109760;28;20043;-87
2022/11/27 05:19:26;;;;;;;10.82;3.05;;;6.20;99.90;;;;;;5111512;28;20048;-87
2022/11/27 05:21:53;;;;;;;9.45;3.15;;;6.20;99.90;;;;;;5093283;28;20122;-87
2022/11/27 05:24:21;;;;;;;11.88;3.85;;;6.20;99.90;;;;;;5109742;28;20567;-87
2022/11/27 05:26:47;;;;;;;8.77;3.50;;;6.20;99.90;;;;;;5111653;28;20033;-87
2022/11/27 05:29:13;;;;;;;10.10;3.38;;;6.20;99.90;;;;;;5110428;28;20046;-86
2022/11/27 05:31:39;;;;;;;9.93;3.53;;;6.20;99.90;;;;;;5111475;28;20067;-87
2022/11/27 05:34:05;;;;;;;10.57;3.13;;;6.20;99.90;;;;;;5094733;28;20092;-87
2022/11/27 05:36:31;;;;;;;9.25;2.97;;;6.20;99.90;;;;;;5109231;28;20524;-87
2022/11/27 05:38:56;;;;;;;10.60;2.92;;;6.20;99.90;;;;;;5110453;28;20043;-87
2022/11/27 05:41:22;;;;;;;8.98;2.70;;;6.20;99.90;;;;;;5109994;28;20488;-87
2022/11/27 05:43:48;;;;;;;10.07;3.08;;;6.20;99.90;;;;;;5109353;28;20032;-87
2022/11/27 05:46:17;;;;;;;10.50;2.72;;;6.20;99.90;;;;;;5110908;28;20449;-87
2022/11/27 05:48:42;;;;;;;14.50;3.65;;;6.20;99.90;;;;;;5109783;28;20038;-87
2022/11/27 05:51:08;;;;;;;12.50;3.63;;;6.20;99.90;;;;;;5110360;28;20047;-87
2022/11/27 05:53:34;;;;;;;9.63;3.13;;;6.20;99.90;;;;;;5093141;28;20131;-87
2022/11/27 05:56:05;;;;;;;9.77;3.33;;;6.20;99.90;;;;;;5092422;28;20122;-87
2022/11/27 05:58:31;;;;;;;12.15;3.13;;;6.20;99.90;;;;;;5110342;28;20564;-87
2022/11/27 06:00:57;;;;;;;10.00;2.92;;;6.20;99.90;;;;;;5093573;28;20055;-87
2022/11/27 06:03:23;;;;;;;10.88;2.83;;;6.20;99.90;;;;;;5110046;28;20103;-87
2022/11/27 06:05:49;;;;;;;11.00;3.10;;;6.20;99.90;;;;;;5111034;28;20497;-87
2022/11/27 06:08:14;;;;;;;9.40;3.28;;;6.20;99.90;;;;;;5093165;28;20031;-87
2022/11/27 06:10:40;;;;;;;9.60;3.08;;;6.20;99.90;;;;;;5093382;28;20050;-87
2022/11/27 06:13:06;;;;;;;15.38;3.47;;;6.20;99.90;;;;;;5092672;28;20067;-87
2022/11/27 06:15:31;;;;;;;10.63;2.90;;;6.20;99.90;;;;;;5092547;28;20111;-87
2022/11/27 06:17:57;;;;;;;12.30;3.50;;;6.20;99.90;;;;;;5110745;28;20081;-87
2022/11/27 06:20:23;;;;;;;8.85;2.75;;;6.20;99.90;;;;;;5101920;28;20044;-87
2022/11/27 06:22:49;;;;;;;9.85;3.38;;;6.20;99.90;;;;;;5072931;28;20040;-87
2022/11/27 06:25:15;;;;;;;9.05;3.35;;;6.20;99.90;;;;;;5089610;28;20405;-87
2022/11/27 06:27:41;;;;;;;8.65;3.05;;;6.20;99.90;;;;;;5106791;28;20489;-87
2022/11/27 06:30:07;;;;;;;12.18;3.25;;;6.20;99.90;;;;;;5091588;28;20036;-87
2022/11/27 06:32:33;;;;;;;12.40;3.58;;;6.20;99.90;;;;;;5091143;28;20043;-87
2022/11/27 06:34:59;;;;;;;13.68;4.22;;;6.20;99.90;;;;;;5109717;28;20045;-87
2022/11/27 06:37:25;;;;;;;12.52;3.80;;;6.20;99.90;;;;;;5092433;28;20511;-87
2022/11/27 06:39:50;;;;;;;9.63;3.30;;;6.20;99.90;;;;;;5105717;28;20039;-87
2022/11/27 06:42:16;;;;;;;9.45;3.28;;;6.20;99.90;;;;;;5088747;28;20513;-87
2022/11/27 06:44:41;;;;;;;8.40;3.05;;;6.20;99.90;;;;;;5096999;28;20038;-87
2022/11/27 06:47:07;;;;;;;11.93;3.38;;;6.20;99.90;;;;;;5092597;28;20537;-87
2022/11/27 06:49:33;;;;;;;9.73;3.47;;;6.20;99.90;;;;;;5092157;28;20044;-87
2022/11/27 06:51:59;;;;;;;13.88;3.63;;;6.20;99.90;;;;;;5091976;28;20047;-87
2022/11/27 06:54:24;;;;;;;10.77;3.22;;;6.20;99.90;;;;;;5093136;28;20061;-87
2022/11/27 06:56:50;;;;;;;10.55;3.80;;;6.20;99.90;;;;;;5109093;28;20032;-87
2022/11/27 06:59:16;;;;;;;10.52;3.80;;;6.20;99.90;;;;;;5090751;28;20461;-87
2022/11/27 07:01:41;;;;;;;11.38;4.57;;;6.20;99.90;;;;;;5105813;28;20031;-87
2022/11/27 07:04:11;;;;;;;11.25;4.43;;;6.20;99.90;;;;;;5077683;28;20436;-86
2022/11/27 07:06:37;;;;;;;10.60;3.42;;;6.20;99.90;;;;;;5108476;28;20126;-87
2022/11/27 07:09:04;;;;;;;12.32;3.47;;;6.20;99.90;;;;;;5108645;28;20067;-87
2022/11/27 07:11:31;;;;;;;10.68;3.58;;;6.20;99.90;;;;;;5108625;28;20040;-86
2022/11/27 07:13:59;;;;;;;11.93;4.10;;;6.20;99.90;;;;;;5109136;28;20043;-87
2022/11/27 07:16:26;;;;;;;12.20;3.80;;;6.20;99.90;;;;;;5109335;28;20385;-87
2022/11/27 07:18:55;;;;;;;9.90;2.88;;;6.20;99.90;;;;;;5109674;28;20035;-87
2022/11/27 07:21:20;;;;;;;11.20;3.85;;;6.20;99.90;;;;;;5109377;28;20035;-87
2022/11/27 07:23:46;;;;;;;8.80;3.40;;;6.30;99.90;;;;;;5100868;28;20088;-87
2022/11/27 07:26:18;;;;;;;10.02;3.88;;;6.30;99.90;;;;;;5092316;28;20042;-87
2022/11/27 07:28:44;;;;;;;11.23;3.58;;;6.30;99.90;;;;;;5091343;28;20127;-87
2022/11/27 07:31:16;;;;;;;10.20;3.47;;;6.30;99.90;;;;;;5099876;28;20410;-87
2022/11/27 07:33:42;;;;;;;13.33;3.43;;;6.30;99.90;;;;;;5108503;28;20032;-86
2022/11/27 07:36:15;;;;;;;9.13;2.95;;;6.30;99.90;;;;;;5108235;28;20409;-87
2022/11/27 07:38:41;;;;;;;11.43;3.95;;;6.30;99.90;;;;;;5109123;28;20099;-87
2022/11/27 07:41:07;;;;;;;11.90;4.28;;;6.30;99.90;;;;;;5109319;28;20393;-87
2022/11/27 07:43:34;;;;;;;13.27;4.53;;;6.30;99.90;;;;;;5090976;28;20035;-87
2022/11/27 07:46:04;;;;;;;10.38;3.72;;;6.30;99.90;;;;;;5111565;28;20042;-87
2022/11/27 07:48:30;;;;;;;9.85;3.90;;;6.40;99.90;;;;;;5111265;28;20393;-87
2022/11/27 07:50:55;;;;;;;10.75;3.97;;;6.30;99.90;;;;;;5095747;28;20035;-86
2022/11/27 07:53:21;;;;;;;11.32;3.45;;;6.40;99.90;;;;;;5095297;28;20043;-87
2022/11/27 07:55:46;;;;;;;14.07;4.35;;;6.30;99.90;;;;;;5112529;28;20044;-87
2022/11/27 07:58:12;;;;;;;8.60;3.67;;;6.40;99.90;;;;;;5112694;28;20050;-87
2022/11/27 08:00:37;;;;;;;12.00;3.75;;;6.40;99.90;;;;;;5111193;28;20054;-87
2022/11/27 08:03:03;;;;;;;11.38;3.92;;;6.40;99.90;;;;;;5111827;28;20067;-87
2022/11/27 08:05:29;;;;;;;11.10;4.22;;;6.40;99.90;;;;;;5094678;28;20606;-87
2022/11/27 08:07:54;;;;;;;11.63;4.68;;;6.40;99.90;;;;;;5093996;28;20043;-87
2022/11/27 08:10:20;;;;;;;11.45;4.45;;;6.40;99.90;;;;;;5110419;28;20036;-87
2022/11/27 08:12:46;;;;;;;9.00;3.38;;;6.40;99.90;;;;;;5108804;28;20100;-86
2022/11/27 08:15:12;;;;;;;14.63;4.20;;;6.50;99.90;;;;;;5109494;28;20031;-87
2022/11/27 08:17:38;;;;;;;9.43;3.72;;;6.50;99.90;;;;;;5110822;28;20042;-87
2022/11/27 08:20:05;;;;;;;10.55;4.00;;;6.50;99.90;;;;;;5111589;28;20078;-87
2022/11/27 08:22:31;;;;;;;11.18;4.40;;;6.50;99.90;;;;;;5110996;28;20035;-87
2022/11/27 08:24:56;;;;;;;10.32;4.03;;;6.50;99.90;;;;;;5111613;28;20118;-87
2022/11/27 08:27:22;;;;;;;10.15;3.90;;;6.50;99.90;;;;;;5112355;28;20043;-87
2022/11/27 08:29:48;;;;;;;10.10;4.50;;;6.60;99.90;;;;;;5111041;28;20122;-86
2022/11/27 08:32:13;;;;;;;14.68;4.03;;;6.60;99.90;;;;;;5111815;28;20073;-87
2022/11/27 08:34:39;;;;;;;12.98;4.57;;;6.60;99.90;;;;;;5112478;28;20050;-87
2022/11/27 08:37:05;;;;;;;10.75;3.97;;;6.60;99.90;;;;;;5094809;28;20040;-87
2022/11/27 08:39:31;;;;;;;10.00;3.80;;;6.60;99.90;;;;;;5094587;28;20047;-87
2022/11/27 08:41:56;;;;;;;11.73;3.90;;;6.60;99.90;;;;;;5094827;28;20036;-87
2022/11/27 08:44:22;;;;;;;13.15;4.78;;;6.60;99.90;;;;;;5110715;28;20408;-87
2022/11/27 08:46:47;;;;;;;15.32;5.18;;;6.70;99.90;;;;;;5111244;28;20040;-87
2022/11/27 08:49:13;;;;;;;11.85;4.03;;;6.70;99.90;;;;;;5110679;28;20134;-87
2022/11/27 08:51:39;;;;;;;10.30;4.25;;;6.70;99.90;;;;;;5102766;28;20097;-87
2022/11/27 08:54:04;;;;;;;10.82;4.22;;;6.70;99.90;;;;;;5108074;28;20039;-87
2022/11/27 08:56:30;;;;;;;12.52;4.13;;;6.70;99.90;;;;;;5101596;28;20397;-87
2022/11/27 08:58:56;;;;;;;9.88;4.07;;;6.70;99.90;;;;;;5094928;28;20066;-87
2022/11/27 09:01:24;;;;;;;14.35;4.70;;;6.70;99.90;;;;;;5083564;28;20096;-87
2022/11/27 09:03:51;;;;;;;11.05;3.80;;;6.80;99.90;;;;;;5110714;28;20080;-87
2022/11/27 09:06:23;;;;;;;11.80;3.72;;;6.80;99.90;;;;;;5111232;27;20081;-87
2022/11/27 09:08:49;;;;;;;13.13;3.90;;;6.80;99.90;;;;;;5110244;28;20119;-87
2022/11/27 09:11:17;;;;;;;9.82;3.80;;;6.80;99.90;;;;;;5093459;28;20085;-87
2022/11/27 09:13:42;;;;;;;12.23;4.25;;;6.80;99.90;;;;;;5109968;28;20031;-87
2022/11/27 09:16:14;;;;;;;11.98;3.65;;;6.80;99.90;;;;;;5093311;28;20034;-87
2022/11/27 09:18:40;;;;;;;11.18;4.10;;;6.80;99.90;;;;;;5092718;28;20499;-87
2022/11/27 09:21:07;;;;;;;12.18;4.35;;;6.80;99.90;;;;;;5108883;28;20084;-87
2022/11/27 09:23:34;;;;;;;11.50;4.05;;;6.80;99.90;;;;;;5111126;28;20118;-87
2022/11/27 09:26:01;;;;;;;13.48;4.18;;;6.90;99.90;;;;;;5093952;28;20054;-87
2022/11/27 09:28:27;;;;;;;11.65;4.53;;;6.90;99.90;;;;;;5094309;28;20139;-87
2022/11/27 09:30:57;;;;;;;10.10;4.38;;;6.90;99.90;;;;;;5094678;28;20078;-87
2022/11/27 09:33:24;;;;;;;13.23;4.45;;;6.90;99.90;;;;;;5093666;28;20062;-88
2022/11/27 09:35:50;;;;;;;12.32;4.00;;;6.90;99.90;;;;;;5094502;28;20500;-87
2022/11/27 09:38:19;;;;;;;14.57;5.20;;;6.90;99.90;;;;;;5110880;28;20043;-87
2022/11/27 09:40:50;;;;;;;10.93;4.78;;;6.90;99.90;;;;;;5110284;28;20043;-87
2022/11/27 09:43:19;;;;;;;11.68;4.03;;;7.00;99.90;;;;;;5110796;28;20040;-87
2022/11/27 09:45:53;;;;;;;12.40;4.20;;;7.00;99.90;;;;;;5109299;28;20024;-87
2022/11/27 09:48:33;;;;;;;12.70;4.40;;;7.00;99.90;;;;;;5110417;28;20039;-87
2022/11/27 09:51:03;;;;;;;12.68;3.88;;;7.00;99.90;;;;;;5109754;28;20126;-87
2022/11/27 09:53:38;;;;;;;11.73;3.80;;;7.00;99.90;;;;;;5109721;28;20067;-87
2022/11/27 09:56:09;;;;;;;13.70;4.72;;;7.00;99.90;;;;;;5093079;28;20039;-87
2022/11/27 09:58:38;;;;;;;13.77;4.20;;;7.00;99.90;;;;;;5110828;28;20047;-87
2022/11/27 10:01:17;;;;;;;12.10;4.13;;;7.00;99.90;;;;;;5093130;28;20044;-88
2022/11/27 10:03:44;;;;;;;14.98;4.43;;;7.00;99.90;;;;;;5093456;28;20493;-85
2022/11/27 10:06:35;;;;;;;13.30;5.22;;;7.00;99.90;;;;;;5093475;28;20044;-85
2022/11/27 10:09:09;;;;;;;13.88;4.45;;;7.00;99.90;;;;;;5097866;28;20040;-85
2022/11/27 10:11:55;;;;;;;11.43;4.18;;;7.00;99.90;;;;;;5106850;28;20040;-85
2022/11/27 10:14:53;;;;;;;13.48;4.57;;;7.00;99.90;;;;;;5107290;28;20400;-84
2022/11/27 10:17:27;;;;;;;11.15;4.40;;;7.00;99.90;;;;;;5109785;28;20366;-84
2022/11/27 10:20:15;;;;;;;12.38;4.85;;;7.00;99.90;;;;;;5103502;28;20040;-85
2022/11/27 10:22:55;;;;;;;12.85;4.20;;;7.00;99.90;;;;;;5091306;28;20459;-85
2022/11/27 10:25:39;;;;;;;11.80;4.65;;;7.00;99.90;;;;;;5087405;28;20469;-85
2022/11/27 10:28:20;;;;;;;12.02;4.35;;;7.00;99.90;;;;;;5101438;28;20394;-85
2022/11/27 10:30:58;;;;;;;16.60;4.93;;;7.00;99.90;;;;;;5097011;28;20036;-85
2022/11/27 10:34:07;;;;;;;16.83;5.03;;;7.00;99.90;;;;;;5102498;28;20054;-85
2022/11/27 10:36:40;;;;;;;12.15;4.65;;;7.10;99.90;;;;;;5054383;28;20561;-85
2022/11/27 10:39:14;;;;;;;10.65;4.00;;;7.00;99.90;;;;;;5109617;28;20047;-85
2022/11/27 10:41:48;;;;;;;13.18;5.15;;;7.10;99.90;;;;;;5109048;28;20028;-85
2022/11/27 10:44:27;;;;;;;11.35;5.30;;;7.10;99.90;;;;;;5109663;28;20062;-85
2022/11/27 10:47:00;;;;;;;12.38;5.05;;;7.10;99.90;;;;;;5108900;28;20032;-84
2022/11/27 10:49:26;;;;;;;12.82;5.28;;;7.10;99.90;;;;;;5110429;28;20062;-85
2022/11/27 10:51:51;;;;;;;11.68;4.97;;;7.10;99.90;;;;;;5108737;28;20388;-85
2022/11/27 10:54:31;;;;;;;13.43;5.18;;;7.10;99.90;;;;;;5091164;28;20618;-84
2022/11/27 10:57:16;;;;;;;12.57;4.82;;;7.20;99.90;;;;;;5092006;28;20032;-85
2022/11/27 11:00:00;;;;;;;13.90;5.40;;;7.20;99.90;;;;;;5108682;28;20114;-85
2022/11/27 11:02:32;;;;;;;14.27;4.82;;;7.20;99.90;;;;;;5091346;28;20169;-85
2022/11/27 11:05:08;;;;;;;13.68;5.32;;;7.10;99.90;;;;;;5108545;28;20032;-84
2022/11/27 11:07:33;;;;;;;10.82;4.13;;;7.20;99.90;;;;;;5109428;28;20070;-85
2022/11/27 11:09:59;;;;;;;12.85;5.43;;;7.20;99.90;;;;;;5089944;28;20094;-85
2022/11/27 11:12:24;;;;;;;10.25;4.68;;;7.20;99.90;;;;;;5096034;28;20035;-84
2022/11/27 11:14:58;;;;;;;12.85;5.07;;;7.20;99.90;;;;;;5107663;28;20122;-85
2022/11/27 11:17:33;;;;;;;11.68;4.63;;;7.20;99.90;;;;;;5108967;28;20078;-85
2022/11/27 11:19:58;;;;;;;13.90;4.63;;;7.20;99.90;;;;;;5110261;28;20056;-85
2022/11/27 11:22:26;;;;;;;14.00;5.53;;;7.20;99.90;;;;;;5112949;28;20039;-85
2022/11/27 11:24:52;;;;;;;12.20;4.47;;;7.20;99.90;;;;;;5096948;28;20035;-85
2022/11/27 11:27:29;;;;;;;12.00;4.97;;;7.20;99.90;;;;;;5113856;28;20039;-85
2022/11/27 11:29:59;;;;;;;12.18;4.28;;;7.20;99.90;;;;;;5096592;28;20032;-85
2022/11/27 11:32:29;;;;;;;12.38;5.10;;;7.20;99.90;;;;;;5113847;28;20102;-85
2022/11/27 11:35:09;;;;;;;11.73;5.00;;;7.20;99.90;;;;;;5113705;28;20100;-85
2022/11/27 11:37:38;;;;;;;10.68;4.50;;;7.20;99.90;;;;;;5114072;28;20097;-85
2022/11/27 11:40:04;;;;;;;14.70;4.97;;;7.20;99.90;;;;;;5113708;28;20040;-85
2022/11/27 11:42:32;;;;;;;11.82;5.15;;;7.20;99.90;;;;;;5111513;28;20039;-85
2022/11/27 11:45:15;;;;;;;11.63;4.55;;;7.20;99.90;;;;;;5095832;28;20043;-85
2022/11/27 11:47:49;;;;;;;11.48;4.63;;;7.20;99.90;;;;;;5112230;28;20579;-85
2022/11/27 11:50:40;;;;;;;12.40;4.82;;;7.20;99.90;;;;;;5111453;28;20042;-84
2022/11/27 11:53:39;;;;;;;13.90;5.03;;;7.30;99.90;;;;;;5112512;28;20049;-85
2022/11/27 11:56:23;;;;;;;13.10;5.25;;;7.30;99.90;;;;;;5100193;28;20032;-85
2022/11/27 11:59:02;;;;;;;11.43;4.72;;;7.30;99.90;;;;;;5091775;28;20097;-85
2022/11/27 12:01:37;;;;;;;12.85;5.50;;;7.30;99.90;;;;;;5090414;28;20048;-85
2022/11/27 12:04:05;;;;;;;11.43;5.65;;;7.40;99.90;;;;;;5091052;28;20115;-84
2022/11/27 12:06:42;;;;;;;14.43;5.53;;;7.40;99.90;;;;;;5089769;28;20422;-85
2022/11/27 12:09:19;;;;;;;12.45;5.18;;;7.40;99.90;;;;;;5107244;28;20036;-85
2022/11/27 12:12:09;;;;;;;13.70;5.57;;;7.40;99.90;;;;;;5112740;28;20122;-85
2022/11/27 12:14:39;;;;;;;12.80;6.22;;;7.40;99.90;;;;;;5096131;28;20378;-84
2022/11/27 12:17:23;;;;;;;11.63;4.90;;;7.40;99.90;;;;;;5095779;28;20044;-85
2022/11/27 12:20:17;;;;;;;14.00;5.60;;;7.40;99.90;;;;;;5112956;28;20100;-85
2022/11/27 12:23:21;;;;;;;11.88;5.28;;;7.40;99.90;;;;;;5111977;28;20044;-84
2022/11/27 12:25:56;;;;;;;;;;;7.50;99.90;;;;;;5112413;28;20043;-85
2022/11/27 12:28:47;;;;;;;12.00;4.50;;;7.50;99.90;;;;;;5112980;28;20273;-85
2022/11/27 12:31:35;;;;;;;10.23;5.15;;;7.50;99.90;;;;;;5112110;28;20035;-84
2022/11/27 12:34:17;;;;;;;12.95;5.32;;;7.50;99.90;;;;;;5111948;28;20047;-86
2022/11/27 12:37:05;;;;;;;11.02;4.47;;;7.50;99.90;;;;;;5111776;28;20043;-84
2022/11/27 12:39:44;;;;;;;12.18;5.15;;;7.50;99.90;;;;;;5087504;28;20119;-84
2022/11/27 12:42:32;;;;;;;11.82;5.82;;;7.60;99.90;;;;;;5074372;28;20111;-84
2022/11/27 12:45:10;;;;;;;14.13;5.75;;;7.60;99.90;;;;;;5075142;28;20040;-85
2022/11/27 12:47:54;;;;;;;13.52;6.18;;;7.60;99.90;;;;;;5091870;28;20044;-85
2022/11/27 12:50:32;;;;;;;12.63;5.38;;;7.60;99.90;;;;;;5092081;28;20390;-84
2022/11/27 12:53:24;;;;;;;12.18;5.45;;;7.60;99.90;;;;;;5074144;28;20493;-85
2022/11/27 12:56:02;;;;;;;11.77;5.50;;;7.60;99.90;;;;;;5091690;28;20044;-85
2022/11/27 12:58:32;;;;;;;15.18;5.60;;;7.60;99.90;;;;;;5075219;28;20433;-84
2022/11/27 13:01:13;;;;;;;12.65;5.70;;;7.60;99.90;;;;;;5091383;28;20036;-85
2022/11/27 13:04:12;;;;;;;12.77;5.65;;;7.60;99.90;;;;;;5073073;28;20532;-85
2022/11/27 13:07:02;;;;;;;10.95;5.00;;;7.60;99.90;;;;;;5071686;28;20093;-84